Time;durP1;ratioP1;P1;durP2;ratioP2;P2;SDS_P1;SDS_P2;PMS_P1;PMS_P2;Temp;Humidity;BMP_temperature;BMP_pressure;BME280_temperature;BME280_humidity;BME280_pressure;Samples;Min_cycle;Max_cycle;Signal;HPM_P1;HPM_P2
2024/01/06 00:01:22;;;;;;;8.10;2.60;;;4.10;99.90;;;;;;4993215;28;20187;-70
2024/01/06 00:03:47;;;;;;;13.17;3.03;;;4.10;99.90;;;;;;4999708;28;20520;-70
2024/01/06 00:06:13;;;;;;;9.80;2.87;;;4.10;99.90;;;;;;5004165;28;20186;-70
2024/01/06 00:08:39;;;;;;;5.00;2.23;;;4.10;99.90;;;;;;4993394;28;20219;-70
2024/01/06 00:11:04;;;;;;;6.50;2.67;;;4.10;99.90;;;;;;5003419;28;20431;-70
2024/01/06 00:13:30;;;;;;;3.53;1.57;;;4.10;99.90;;;;;;4993158;28;20184;-70
2024/01/06 00:15:55;;;;;;;4.70;2.57;;;4.10;99.90;;;;;;4991060;28;20519;-70
2024/01/06 00:18:21;;;;;;;4.27;2.10;;;4.20;99.90;;;;;;4992564;28;20680;-70
2024/01/06 00:20:46;;;;;;;4.97;2.40;;;4.10;99.90;;;;;;4999633;28;20211;-70
2024/01/06 00:23:12;;;;;;;2.53;1.77;;;4.10;99.90;;;;;;4995769;28;20194;-70
2024/01/06 00:25:37;;;;;;;6.73;2.00;;;4.10;99.90;;;;;;4997795;28;20718;-70
2024/01/06 00:28:03;;;;;;;6.60;2.47;;;5.30;99.90;;;;;;5000509;28;20703;-71
2024/01/06 00:30:29;;;;;;;14.00;2.60;;;4.10;99.90;;;;;;4998916;28;20274;-71
2024/01/06 00:32:54;;;;;;;4.03;2.10;;;4.00;99.90;;;;;;4993248;28;20194;-70
2024/01/06 00:35:20;;;;;;;6.00;2.70;;;4.00;99.90;;;;;;5005441;28;20187;-70
2024/01/06 00:37:45;;;;;;;4.20;2.57;;;4.00;99.90;;;;;;4999113;28;20187;-70
2024/01/06 00:40:11;;;;;;;3.43;2.33;;;4.00;99.90;;;;;;4993645;28;20644;-70
2024/01/06 00:42:37;;;;;;;17.97;2.87;;;3.90;99.90;;;;;;4981137;28;20184;-70
2024/01/06 00:45:04;;;;;;;6.93;2.90;;;3.90;99.90;;;;;;4997783;28;20218;-70
2024/01/06 00:47:29;;;;;;;4.37;2.23;;;3.90;99.90;;;;;;5008047;28;20844;-70
2024/01/06 00:49:54;;;;;;;4.33;2.53;;;3.90;99.90;;;;;;5006060;28;20427;-70
2024/01/06 00:52:20;;;;;;;4.13;1.83;;;3.90;99.90;;;;;;4992790;28;20291;-71
2024/01/06 00:54:47;;;;;;;5.77;2.43;;;3.90;99.90;;;;;;4999485;28;20274;-71
2024/01/06 00:57:12;;;;;;;7.37;2.70;;;3.90;99.90;;;;;;4989962;28;20188;-71
2024/01/06 00:59:38;;;;;;;11.77;2.10;;;3.90;99.90;;;;;;4997301;28;20929;-71
2024/01/06 01:02:03;;;;;;;6.90;2.13;;;3.90;99.90;;;;;;5000798;28;20180;-70
2024/01/06 01:04:29;;;;;;;2.77;1.60;;;3.90;99.90;;;;;;4996057;28;20209;-70
2024/01/06 01:06:54;;;;;;;3.00;1.93;;;3.90;99.90;;;;;;4999575;28;20188;-70
2024/01/06 01:09:20;;;;;;;6.30;2.40;;;3.90;99.90;;;;;;5004703;28;20184;-70
2024/01/06 01:11:45;;;;;;;4.63;1.60;;;3.90;99.90;;;;;;4998156;28;20183;-71
2024/01/06 01:14:11;;;;;;;3.50;2.10;;;3.90;99.90;;;;;;4974935;28;20184;-70
2024/01/06 01:16:36;;;;;;;4.53;1.90;;;3.90;99.90;;;;;;5004888;28;20190;-71
2024/01/06 01:19:02;;;;;;;7.13;2.63;;;3.80;99.90;;;;;;4998623;28;20234;-71
2024/01/06 01:21:28;;;;;;;3.43;1.93;;;3.90;99.90;;;;;;5011293;28;20711;-71
2024/01/06 01:23:53;;;;;;;3.90;2.17;;;3.80;99.90;;;;;;4999069;28;20188;-71
2024/01/06 01:26:19;;;;;;;2.90;1.63;;;5.10;99.90;;;;;;5002421;28;20636;-70
2024/01/06 01:28:44;;;;;;;4.27;1.90;;;3.80;99.90;;;;;;4998510;28;20190;-70
2024/01/06 01:31:10;;;;;;;3.47;1.63;;;3.80;99.90;;;;;;5011803;28;20954;-70
2024/01/06 01:33:35;;;;;;;3.77;1.90;;;3.80;99.90;;;;;;5005929;28;20195;-70
2024/01/06 01:36:01;;;;;;;5.00;2.13;;;3.80;99.90;;;;;;4997612;28;20190;-70
2024/01/06 01:38:26;;;;;;;6.17;1.93;;;3.80;99.90;;;;;;4991941;28;20526;-70
2024/01/06 01:40:52;;;;;;;3.70;1.93;;;3.80;99.90;;;;;;4996590;28;20189;-70
2024/01/06 01:43:21;;;;;;;4.33;2.50;;;3.80;99.90;;;;;;4987095;28;20282;-70
2024/01/06 01:45:52;;;;;;;5.20;1.80;;;3.70;99.90;;;;;;4997797;28;20739;-70
2024/01/06 01:48:19;;;;;;;2.80;1.50;;;5.00;99.90;;;;;;4991163;28;20419;-70
2024/01/06 01:50:45;;;;;;;3.10;1.53;;;3.70;99.90;;;;;;4992819;28;20427;-70
2024/01/06 01:53:12;;;;;;;3.20;1.70;;;3.70;99.90;;;;;;4991449;28;20471;-70
2024/01/06 01:55:37;;;;;;;6.30;1.47;;;3.70;99.90;;;;;;4991232;28;20927;-70
2024/01/06 01:58:04;;;;;;;3.80;1.80;;;4.70;99.90;;;;;;5011699;28;20472;-71
2024/01/06 02:00:30;;;;;;;14.57;1.63;;;3.70;99.90;;;;;;4990561;28;20179;-71
2024/01/06 02:02:56;;;;;;;2.00;1.33;;;3.60;99.90;;;;;;4978780;28;20430;-71
2024/01/06 02:05:21;;;;;;;3.20;1.73;;;3.70;99.90;;;;;;5001583;28;20238;-71
2024/01/06 02:07:47;;;;;;;5.10;1.53;;;4.90;99.90;;;;;;4998031;28;20446;-71
2024/01/06 02:10:13;;;;;;;3.50;1.33;;;3.70;99.90;;;;;;4998433;28;20183;-71
2024/01/06 02:12:38;;;;;;;2.57;0.90;;;3.70;99.90;;;;;;4998732;28;20436;-71
2024/01/06 02:15:04;;;;;;;4.30;1.70;;;5.10;99.90;;;;;;4991684;28;20486;-71
2024/01/06 02:17:30;;;;;;;8.17;1.53;;;3.70;99.90;;;;;;4997195;28;20236;-71
2024/01/06 02:19:56;;;;;;;3.83;1.67;;;3.70;99.90;;;;;;4991600;28;20427;-71
2024/01/06 02:22:21;;;;;;;2.73;1.00;;;3.70;99.90;;;;;;5003791;28;20187;-70
2024/01/06 02:24:47;;;;;;;3.97;1.20;;;4.80;99.90;;;;;;4986083;28;20458;-70
2024/01/06 02:27:14;;;;;;;2.23;1.07;;;5.20;99.90;;;;;;5006347;28;20680;-71
2024/01/06 02:29:39;;;;;;;2.37;1.10;;;3.80;99.90;;;;;;5000629;28;20222;-71
2024/01/06 02:32:05;;;;;;;3.80;1.37;;;5.10;99.90;;;;;;4995581;28;20774;-70
2024/01/06 02:34:32;;;;;;;5.57;1.10;;;3.70;99.90;;;;;;5007137;28;20211;-70
2024/01/06 02:36:58;;;;;;;1.63;0.93;;;3.70;99.90;;;;;;4988628;28;20191;-70
2024/01/06 02:39:23;;;;;;;16.23;1.90;;;3.60;99.90;;;;;;5014713;28;20452;-70
2024/01/06 02:41:49;;;;;;;2.20;1.07;;;3.50;99.90;;;;;;4986872;28;20184;-70
2024/01/06 02:44:15;;;;;;;2.67;1.10;;;3.60;99.90;;;;;;4994545;28;20227;-70
2024/01/06 02:46:40;;;;;;;3.40;1.50;;;3.50;99.90;;;;;;4995748;28;20237;-70
2024/01/06 02:49:07;;;;;;;3.07;1.37;;;3.50;99.90;;;;;;4995723;28;20198;-70
2024/01/06 02:51:32;;;;;;;1.27;0.80;;;4.40;99.90;;;;;;4985614;28;20249;-70
2024/01/06 02:53:58;;;;;;;4.20;0.80;;;3.50;99.90;;;;;;5002203;28;20429;-70
2024/01/06 02:56:23;;;;;;;4.10;1.43;;;4.90;99.90;;;;;;5001348;28;20183;-70
2024/01/06 02:58:49;;;;;;;3.17;1.60;;;3.50;99.90;;;;;;4999261;28;20648;-70
2024/01/06 03:01:14;;;;;;;3.00;1.73;;;3.50;99.90;;;;;;5002364;28;20198;-70
2024/01/06 03:03:39;;;;;;;5.97;1.40;;;3.60;99.90;;;;;;5013712;28;20202;-71
2024/01/06 03:06:05;;;;;;;2.83;1.07;;;3.50;99.90;;;;;;5007257;28;20203;-71
2024/01/06 03:08:31;;;;;;;2.43;1.37;;;3.60;99.90;;;;;;4994682;28;20191;-71
2024/01/06 03:10:56;;;;;;;6.67;1.53;;;4.80;99.90;;;;;;4994944;28;20190;-71
2024/01/06 03:13:22;;;;;;;2.73;1.33;;;3.60;99.90;;;;;;5005679;28;20620;-71
2024/01/06 03:15:47;;;;;;;2.63;1.20;;;3.60;99.90;;;;;;4995309;28;20192;-71
2024/01/06 03:18:13;;;;;;;5.77;1.53;;;3.70;99.90;;;;;;4992409;28;20239;-70
2024/01/06 03:20:38;;;;;;;6.27;1.77;;;3.60;99.90;;;;;;4994045;28;20195;-70
2024/01/06 03:23:04;;;;;;;3.73;1.53;;;3.50;99.90;;;;;;4996946;28;20226;-71
2024/01/06 03:25:29;;;;;;;3.57;1.57;;;3.60;99.90;;;;;;5007043;28;20207;-71
2024/01/06 03:27:55;;;;;;;5.33;1.90;;;3.60;99.90;;;;;;5001326;28;20182;-71
2024/01/06 03:30:20;;;;;;;7.27;1.90;;;3.70;99.90;;;;;;4995959;28;20184;-71
2024/01/06 03:32:45;;;;;;;9.50;2.40;;;4.70;99.90;;;;;;4994399;28;20195;-71
2024/01/06 03:35:11;;;;;;;5.63;2.40;;;3.70;99.90;;;;;;5006340;28;20183;-71
2024/01/06 03:37:36;;;;;;;7.60;2.30;;;3.70;99.90;;;;;;4997985;28;20202;-70
2024/01/06 03:40:02;;;;;;;4.93;2.23;;;3.70;99.90;;;;;;4995789;28;20590;-70
2024/01/06 03:42:28;;;;;;;2.93;1.70;;;3.70;99.90;;;;;;4986834;28;20581;-70
2024/01/06 03:44:53;;;;;;;2.00;0.80;;;3.70;99.90;;;;;;4993826;28;20459;-70
2024/01/06 03:47:19;;;;;;;4.03;1.47;;;3.60;99.90;;;;;;4999663;28;20175;-70
2024/01/06 03:49:44;;;;;;;4.00;1.30;;;3.50;99.90;;;;;;5004795;28;20191;-70
2024/01/06 03:52:10;;;;;;;4.00;1.53;;;3.50;99.90;;;;;;5002526;28;20179;-70
2024/01/06 03:54:35;;;;;;;8.77;2.40;;;3.40;99.90;;;;;;4993722;28;20188;-70
2024/01/06 03:57:01;;;;;;;11.37;1.70;;;3.40;99.90;;;;;;5005224;28;20203;-70
2024/01/06 03:59:26;;;;;;;3.50;1.57;;;3.50;99.90;;;;;;5010906;28;20705;-70
2024/01/06 04:01:52;;;;;;;2.70;1.53;;;3.50;99.90;;;;;;5005170;28;20265;-70
2024/01/06 04:04:17;;;;;;;7.30;1.87;;;3.50;99.90;;;;;;4995191;28;20212;-70
2024/01/06 04:06:43;;;;;;;5.33;1.43;;;3.50;99.90;;;;;;4993150;28;20813;-71
2024/01/06 04:09:09;;;;;;;1.80;0.90;;;3.40;99.90;;;;;;5005599;28;20211;-71
2024/01/06 04:11:34;;;;;;;2.50;1.67;;;3.40;99.90;;;;;;4993648;28;20271;-70
2024/01/06 04:14:00;;;;;;;3.33;1.43;;;3.50;99.90;;;;;;5005065;28;20549;-70
2024/01/06 04:16:27;;;;;;;4.17;2.40;;;4.50;99.90;;;;;;4996493;28;20183;-71
2024/01/06 04:18:52;;;;;;;5.00;1.43;;;3.50;99.90;;;;;;4997113;28;20342;-71
2024/01/06 04:21:18;;;;;;;3.93;1.60;;;3.50;99.90;;;;;;5003072;28;20509;-70
2024/01/06 04:23:43;;;;;;;2.80;1.50;;;3.40;99.90;;;;;;5001421;28;20176;-70
2024/01/06 04:26:09;;;;;;;4.07;1.67;;;3.50;99.90;;;;;;5002142;28;20209;-70
2024/01/06 04:28:34;;;;;;;6.53;1.40;;;3.40;99.90;;;;;;5008751;28;20239;-71
2024/01/06 04:31:00;;;;;;;6.20;2.10;;;3.40;99.90;;;;;;5001029;28;20187;-71
2024/01/06 04:33:25;;;;;;;3.57;1.47;;;3.40;99.90;;;;;;4998681;28;20183;-70
2024/01/06 04:35:51;;;;;;;3.30;1.57;;;3.40;99.90;;;;;;5001673;28;20190;-70
2024/01/06 04:38:16;;;;;;;3.40;1.37;;;3.50;99.90;;;;;;4999230;28;20274;-70
2024/01/06 04:40:43;;;;;;;2.53;1.50;;;4.20;99.90;;;;;;4998099;28;20191;-70
2024/01/06 04:43:08;;;;;;;3.57;1.20;;;3.40;99.90;;;;;;4989524;28;20647;-70
2024/01/06 04:45:34;;;;;;;3.73;1.60;;;3.40;99.90;;;;;;4992891;28;20482;-70
2024/01/06 04:48:00;;;;;;;4.30;1.50;;;3.90;99.90;;;;;;4988811;28;20190;-70
2024/01/06 04:50:25;;;;;;;2.27;1.17;;;3.50;99.90;;;;;;5001136;28;20196;-70
2024/01/06 04:52:51;;;;;;;5.07;1.27;;;3.50;99.90;;;;;;5005037;28;20185;-70
2024/01/06 04:55:16;;;;;;;4.40;1.37;;;3.60;99.90;;;;;;5001801;28;20301;-70
2024/01/06 04:57:42;;;;;;;2.20;1.10;;;3.60;99.90;;;;;;4996505;28;20263;-70
2024/01/06 05:00:08;;;;;;;2.13;1.17;;;3.60;99.90;;;;;;4991758;28;20187;-70
2024/01/06 05:02:34;;;;;;;2.90;1.30;;;3.50;99.90;;;;;;5005770;28;20286;-71
2024/01/06 05:04:59;;;;;;;5.77;1.40;;;3.40;99.90;;;;;;4990420;28;21013;-71
2024/01/06 05:07:25;;;;;;;3.90;1.30;;;3.40;99.90;;;;;;4991818;28;20184;-70
2024/01/06 05:09:50;;;;;;;6.90;1.60;;;3.40;99.90;;;;;;4998550;28;20282;-70
2024/01/06 05:12:16;;;;;;;4.03;1.50;;;3.40;99.90;;;;;;4995640;28;20184;-70
2024/01/06 05:14:41;;;;;;;11.30;1.90;;;3.40;99.90;;;;;;4997738;28;20194;-70
2024/01/06 05:17:08;;;;;;;3.20;1.53;;;3.40;99.90;;;;;;4995147;28;20339;-71
2024/01/06 05:19:34;;;;;;;2.50;1.57;;;3.40;99.90;;;;;;4992395;28;20188;-71
2024/01/06 05:21:59;;;;;;;6.20;1.80;;;3.40;99.90;;;;;;5004129;28;20426;-70
2024/01/06 05:24:25;;;;;;;4.67;1.77;;;3.50;99.90;;;;;;4983906;28;20227;-70
2024/01/06 05:26:50;;;;;;;2.13;1.17;;;3.40;99.90;;;;;;4983751;28;20199;-70
2024/01/06 05:29:16;;;;;;;4.23;1.57;;;3.40;99.90;;;;;;4992441;28;20196;-70
2024/01/06 05:31:41;;;;;;;1.90;1.20;;;3.40;99.90;;;;;;4992300;28;20267;-70
2024/01/06 05:34:07;;;;;;;4.30;1.63;;;3.50;99.90;;;;;;4999114;28;20195;-70
2024/01/06 05:36:32;;;;;;;7.60;1.43;;;3.50;99.90;;;;;;4991523;28;20206;-71
2024/01/06 05:39:00;;;;;;;3.23;1.30;;;3.50;99.90;;;;;;5007298;28;20254;-71
2024/01/06 05:41:25;;;;;;;1.63;0.90;;;3.60;99.90;;;;;;4992597;28;20203;-71
2024/01/06 05:43:51;;;;;;;3.83;1.87;;;3.60;99.90;;;;;;4985035;28;20423;-71
2024/01/06 05:46:24;;;;;;;7.47;1.37;;;3.60;99.90;;;;;;5008140;28;20216;-71
2024/01/06 05:48:50;;;;;;;14.23;1.73;;;3.60;99.90;;;;;;4992135;28;20192;-71
2024/01/06 05:51:15;;;;;;;2.03;1.07;;;3.60;99.90;;;;;;4991233;28;20427;-71
2024/01/06 05:53:44;;;;;;;3.63;2.00;;;5.10;99.90;;;;;;4987556;28;20191;-71
2024/01/06 05:56:09;;;;;;;4.40;1.07;;;3.60;99.90;;;;;;4991920;28;20190;-71
2024/01/06 05:58:35;;;;;;;5.67;1.03;;;3.60;99.90;;;;;;4985165;28;20418;-70
2024/01/06 06:01:01;;;;;;;1.50;0.80;;;3.60;99.90;;;;;;4998173;28;20183;-70
2024/01/06 06:03:26;;;;;;;9.93;1.80;;;4.50;99.90;;;;;;5015831;28;20211;-70
2024/01/06 06:05:52;;;;;;;7.13;1.50;;;3.60;99.90;;;;;;4997851;28;20218;-70
2024/01/06 06:08:18;;;;;;;1.97;0.90;;;3.70;99.90;;;;;;4996164;28;20180;-70
2024/01/06 06:10:51;;;;;;;2.40;0.80;;;3.70;99.90;;;;;;5004954;28;21040;-70
2024/01/06 06:13:17;;;;;;;8.23;2.00;;;3.70;99.90;;;;;;5005939;28;20186;-70
2024/01/06 06:15:42;;;;;;;2.40;1.03;;;3.70;99.90;;;;;;4997324;28;20520;-70
2024/01/06 06:18:08;;;;;;;7.33;1.37;;;4.90;99.90;;;;;;5000836;28;20866;-71
2024/01/06 06:20:33;;;;;;;4.70;1.60;;;4.80;99.90;;;;;;4993533;28;20231;-71
2024/01/06 06:22:59;;;;;;;2.83;1.60;;;3.80;99.90;;;;;;5003361;28;20206;-70
2024/01/06 06:25:24;;;;;;;3.17;1.40;;;3.80;99.90;;;;;;5014561;28;20211;-70
2024/01/06 06:27:50;;;;;;;4.87;1.70;;;3.80;99.90;;;;;;5013377;28;20202;-70
2024/01/06 06:30:15;;;;;;;4.30;2.07;;;3.80;99.90;;;;;;5015009;28;20793;-70
2024/01/06 06:32:41;;;;;;;3.60;1.60;;;3.90;99.90;;;;;;5007248;28;20187;-71
2024/01/06 06:35:07;;;;;;;1.77;1.00;;;3.80;99.90;;;;;;4986150;28;20196;-71
2024/01/06 06:37:33;;;;;;;4.40;1.17;;;3.80;99.90;;;;;;4991628;28;20477;-71
2024/01/06 06:39:58;;;;;;;3.10;1.17;;;3.80;99.90;;;;;;4995097;28;20198;-71
2024/01/06 06:42:24;;;;;;;2.30;1.10;;;3.80;99.90;;;;;;4980891;28;20210;-70
2024/01/06 06:44:49;;;;;;;6.20;1.40;;;3.80;99.90;;;;;;4994486;28;20211;-70
2024/01/06 06:47:15;;;;;;;4.37;1.10;;;3.90;99.90;;;;;;5000608;28;20193;-70
2024/01/06 06:49:41;;;;;;;4.20;1.30;;;4.00;99.90;;;;;;4995000;28;20566;-70
2024/01/06 06:52:07;;;;;;;9.87;1.87;;;3.90;99.90;;;;;;4991879;28;20172;-70
2024/01/06 06:54:32;;;;;;;3.87;2.00;;;3.90;99.90;;;;;;4990546;28;20930;-70
2024/01/06 06:56:58;;;;;;;2.37;1.10;;;3.90;99.90;;;;;;4999510;28;20227;-71
2024/01/06 06:59:23;;;;;;;3.20;1.70;;;4.00;99.90;;;;;;5010022;28;20195;-71
2024/01/06 07:01:49;;;;;;;2.40;1.43;;;3.90;99.90;;;;;;4992377;28;20198;-70
2024/01/06 07:04:14;;;;;;;3.20;1.33;;;3.90;99.90;;;;;;4994730;28;20193;-70
2024/01/06 07:06:40;;;;;;;4.90;1.43;;;4.00;99.90;;;;;;4997125;28;20222;-70
2024/01/06 07:09:05;;;;;;;6.70;2.73;;;3.90;99.90;;;;;;4994636;28;20549;-70
2024/01/06 07:11:30;;;;;;;13.80;5.20;;;4.50;99.90;;;;;;4993730;28;20258;-69
2024/01/06 07:13:56;;;;;;;10.70;3.50;;;4.00;99.90;;;;;;5005662;28;20196;-70
2024/01/06 07:16:21;;;;;;;15.07;4.30;;;3.90;99.90;;;;;;4994429;28;20183;-70
2024/01/06 07:18:47;;;;;;;6.17;2.80;;;4.50;99.90;;;;;;4993434;28;20623;-70
2024/01/06 07:21:13;;;;;;;8.30;1.97;;;3.90;99.90;;;;;;4993955;28;20218;-70
2024/01/06 07:23:39;;;;;;;6.10;2.07;;;4.90;99.90;;;;;;4994685;28;20188;-71
2024/01/06 07:26:04;;;;;;;3.37;1.80;;;4.00;99.90;;;;;;5001002;28;20576;-71
2024/01/06 07:28:30;;;;;;;2.30;1.10;;;4.00;99.90;;;;;;4992128;28;20202;-70
2024/01/06 07:30:55;;;;;;;4.87;2.60;;;4.00;99.90;;;;;;4983747;28;20195;-70
2024/01/06 07:33:21;;;;;;;3.07;1.50;;;3.90;99.90;;;;;;4998459;28;20644;-70
2024/01/06 07:35:46;;;;;;;3.17;1.40;;;3.90;99.90;;;;;;5010557;28;20187;-70
2024/01/06 07:38:13;;;;;;;2.10;1.10;;;4.00;99.90;;;;;;5011006;28;20270;-69
2024/01/06 07:40:38;;;;;;;3.57;1.57;;;4.00;99.90;;;;;;4998632;28;20270;-70
2024/01/06 07:43:04;;;;;;;2.80;1.23;;;4.00;99.90;;;;;;4989970;28;20582;-70
2024/01/06 07:45:31;;;;;;;4.23;1.70;;;4.00;99.90;;;;;;4988155;28;20216;-70
2024/01/06 07:47:57;;;;;;;5.33;1.33;;;4.10;99.90;;;;;;5003156;28;20516;-71
2024/01/06 07:50:23;;;;;;;9.53;1.90;;;4.10;99.90;;;;;;4992195;28;20485;-71
2024/01/06 07:52:48;;;;;;;10.63;2.50;;;4.10;99.90;;;;;;5004446;28;20597;-69
2024/01/06 07:55:14;;;;;;;3.93;1.63;;;4.20;99.90;;;;;;5002952;28;20199;-70
2024/01/06 07:57:39;;;;;;;5.00;1.67;;;4.10;99.90;;;;;;5001320;28;20203;-70
2024/01/06 08:00:05;;;;;;;3.47;1.37;;;4.00;99.90;;;;;;5005651;28;20188;-70
2024/01/06 08:02:31;;;;;;;4.60;1.87;;;4.00;99.90;;;;;;5007270;28;20194;-71
2024/01/06 08:04:56;;;;;;;4.07;2.17;;;4.10;99.90;;;;;;5001087;28;20474;-71
2024/01/06 08:07:22;;;;;;;4.33;2.53;;;4.10;99.90;;;;;;4996878;28;20188;-70
2024/01/06 08:09:48;;;;;;;2.10;1.43;;;4.10;99.90;;;;;;5007674;28;20656;-70
2024/01/06 08:12:15;;;;;;;2.80;1.33;;;4.10;99.90;;;;;;5010746;28;20464;-70
2024/01/06 08:14:40;;;;;;;2.43;1.37;;;4.20;99.90;;;;;;4998760;28;20193;-71
2024/01/06 08:17:06;;;;;;;3.27;1.97;;;4.90;99.90;;;;;;5010206;28;20568;-71
2024/01/06 08:19:33;;;;;;;5.90;1.70;;;4.30;99.90;;;;;;5002848;28;20183;-70
2024/01/06 08:21:58;;;;;;;4.57;1.13;;;5.40;99.90;;;;;;5012569;28;20198;-71
2024/01/06 08:24:24;;;;;;;1.97;1.20;;;4.40;99.90;;;;;;5004082;28;20463;-70
2024/01/06 08:26:50;;;;;;;2.00;1.10;;;4.40;99.90;;;;;;5004574;28;20195;-71
2024/01/06 08:29:16;;;;;;;2.07;1.03;;;4.40;99.90;;;;;;5003946;28;20498;-72
2024/01/06 08:31:42;;;;;;;1.73;1.10;;;4.40;99.90;;;;;;5006431;28;20182;-71
2024/01/06 08:34:07;;;;;;;2.90;1.33;;;4.50;99.90;;;;;;5012843;28;20418;-71
2024/01/06 08:36:34;;;;;;;2.10;1.20;;;4.50;99.90;;;;;;5010115;28;20693;-71
2024/01/06 08:38:59;;;;;;;7.93;2.40;;;4.60;99.90;;;;;;5001050;28;20211;-71
2024/01/06 08:41:25;;;;;;;4.13;1.60;;;4.60;99.90;;;;;;5008897;28;20468;-71
2024/01/06 08:43:50;;;;;;;8.27;2.00;;;4.70;99.90;;;;;;4986324;28;20689;-71
2024/01/06 08:46:16;;;;;;;3.90;1.53;;;5.20;99.90;;;;;;4994416;28;20557;-71
2024/01/06 08:48:42;;;;;;;2.50;1.30;;;4.70;99.90;;;;;;5006911;28;20665;-70
2024/01/06 08:51:07;;;;;;;2.57;1.63;;;5.70;99.90;;;;;;5009887;28;20508;-71
2024/01/06 08:53:33;;;;;;;3.43;1.23;;;4.70;99.90;;;;;;4982929;28;20198;-71
2024/01/06 08:55:58;;;;;;;1.80;0.90;;;4.70;99.90;;;;;;4982543;28;20202;-71
2024/01/06 08:58:24;;;;;;;4.67;1.07;;;4.80;99.90;;;;;;4994603;28;20187;-70
2024/01/06 09:00:50;;;;;;;3.33;1.10;;;4.70;99.90;;;;;;4987516;28;20216;-70
2024/01/06 09:03:15;;;;;;;2.97;1.30;;;4.80;99.90;;;;;;5003481;28;20198;-71
2024/01/06 09:05:41;;;;;;;5.70;1.07;;;4.80;99.90;;;;;;5003184;28;20454;-71
2024/01/06 09:08:07;;;;;;;1.60;0.93;;;4.80;99.90;;;;;;4993318;28;20183;-71
2024/01/06 09:10:32;;;;;;;2.77;0.87;;;4.80;99.90;;;;;;4997119;28;20528;-71
2024/01/06 09:12:58;;;;;;;2.07;0.80;;;4.80;99.90;;;;;;4992645;28;20227;-71
2024/01/06 09:15:24;;;;;;;2.93;0.90;;;5.70;99.90;;;;;;5003344;28;20186;-71
2024/01/06 09:17:49;;;;;;;1.30;0.80;;;4.70;99.90;;;;;;5006153;28;20573;-70
2024/01/06 09:20:15;;;;;;;2.70;0.90;;;5.80;99.90;;;;;;4993731;28;20187;-70
2024/01/06 09:22:40;;;;;;;2.30;1.07;;;4.70;99.90;;;;;;4997485;28;20183;-70
2024/01/06 09:25:06;;;;;;;1.93;1.13;;;4.70;99.90;;;;;;5005108;28;20285;-70
2024/01/06 09:27:32;;;;;;;3.03;1.67;;;4.70;99.90;;;;;;4983456;28;20264;-70
2024/01/06 09:29:58;;;;;;;3.43;1.03;;;4.90;99.90;;;;;;4999478;28;20520;-71
2024/01/06 09:32:24;;;;;;;2.80;1.40;;;4.90;99.90;;;;;;5005148;28;20578;-68
2024/01/06 09:34:49;;;;;;;19.47;1.20;;;5.00;99.90;;;;;;4998093;28;20249;-68
2024/01/06 09:37:15;;;;;;;2.53;1.20;;;5.10;99.90;;;;;;4991411;28;20679;-69
2024/01/06 09:39:40;;;;;;;2.90;1.00;;;5.00;99.90;;;;;;4997080;28;20545;-69
2024/01/06 09:42:06;;;;;;;4.53;1.30;;;5.00;99.90;;;;;;4999180;28;20184;-69
2024/01/06 09:44:32;;;;;;;3.00;1.47;;;4.90;99.90;;;;;;4990101;28;20215;-69
2024/01/06 09:47:00;;;;;;;2.37;1.07;;;4.90;99.90;;;;;;5000995;28;20265;-69
2024/01/06 09:49:28;;;;;;;6.50;1.30;;;5.00;99.90;;;;;;4989309;28;20423;-69
2024/01/06 09:51:58;;;;;;;1.30;0.60;;;5.60;99.90;;;;;;5000804;28;20426;-67
2024/01/06 09:54:25;;;;;;;7.83;3.43;;;5.10;99.90;;;;;;5008936;28;20513;-68
2024/01/06 09:56:50;;;;;;;3.40;1.00;;;5.10;99.90;;;;;;4987146;28;20431;-68
2024/01/06 09:59:16;;;;;;;1.30;0.70;;;5.20;99.90;;;;;;4989708;28;20427;-68
2024/01/06 10:01:42;;;;;;;1.70;0.70;;;5.10;99.90;;;;;;4996110;28;20215;-69
2024/01/06 10:04:07;;;;;;;2.60;0.80;;;5.10;99.90;;;;;;4995473;28;20183;-68
2024/01/06 10:06:33;;;;;;;2.27;0.70;;;5.10;99.90;;;;;;4991918;28;20191;-68
2024/01/06 10:08:59;;;;;;;1.17;0.67;;;6.40;99.90;;;;;;5004839;28;20194;-67
2024/01/06 10:11:26;;;;;;;1.30;0.70;;;6.20;99.90;;;;;;4994944;28;20179;-68
2024/01/06 10:13:52;;;;;;;1.83;0.80;;;5.00;99.90;;;;;;4995481;28;20418;-67
2024/01/06 10:16:18;;;;;;;2.73;0.70;;;6.40;99.90;;;;;;5000205;28;20427;-68
2024/01/06 10:18:44;;;;;;;2.10;0.80;;;5.00;99.90;;;;;;4991063;28;20455;-68
2024/01/06 10:21:10;;;;;;;1.77;0.63;;;5.10;99.90;;;;;;4991628;28;20431;-68
2024/01/06 10:23:36;;;;;;;1.97;0.97;;;5.20;99.90;;;;;;5001368;28;20469;-67
2024/01/06 10:26:02;;;;;;;1.70;0.80;;;5.20;99.90;;;;;;4999754;28;20203;-67
2024/01/06 10:28:28;;;;;;;3.77;0.90;;;5.30;99.90;;;;;;4993641;28;20426;-68
2024/01/06 10:30:55;;;;;;;3.30;1.33;;;6.60;99.90;;;;;;4999092;28;20422;-68
2024/01/06 10:33:22;;;;;;;2.10;0.77;;;6.50;99.90;;;;;;4997382;28;20426;-68
2024/01/06 10:35:49;;;;;;;2.93;1.33;;;5.20;99.90;;;;;;5011256;28;20414;-68
2024/01/06 10:38:17;;;;;;;2.53;1.20;;;5.20;99.90;;;;;;4995983;28;20549;-69
2024/01/06 10:41:09;;;;;;;3.27;1.70;;;6.10;99.90;;;;;;5000483;28;20427;-69
2024/01/06 10:43:37;;;;;;;5.80;2.77;;;5.30;99.90;;;;;;4980658;28;20540;-71
2024/01/06 10:46:04;;;;;;;2.57;0.90;;;5.40;99.90;;;;;;5002680;28;20485;-69
2024/01/06 10:48:35;;;;;;;4.23;2.10;;;5.40;99.90;;;;;;4995805;28;20423;-71
2024/01/06 10:51:02;;;;;;;8.00;2.83;;;5.70;99.90;;;;;;4995311;28;20431;-71
2024/01/06 10:53:27;;;;;;;8.83;2.50;;;6.00;99.90;;;;;;4996875;28;20431;-72
2024/01/06 10:55:53;;;;;;;17.53;3.47;;;5.50;99.90;;;;;;4995226;28;20438;-72
2024/01/06 10:58:19;;;;;;;3.20;1.23;;;6.50;99.90;;;;;;4988059;28;20211;-72
2024/01/06 11:00:46;;;;;;;4.30;1.77;;;5.50;99.90;;;;;;4999599;28;20195;-72
2024/01/06 11:03:13;;;;;;;2.47;0.87;;;6.60;99.90;;;;;;5006308;28;20438;-72
2024/01/06 11:05:40;;;;;;;2.37;1.00;;;6.60;99.90;;;;;;4999558;28;20471;-72
2024/01/06 11:08:06;;;;;;;3.77;0.90;;;5.60;99.90;;;;;;5003739;28;20426;-72
2024/01/06 11:10:33;;;;;;;1.87;0.90;;;5.50;99.90;;;;;;4998694;28;20481;-72
2024/01/06 11:13:12;;;;;;;1.47;0.70;;;5.50;99.90;;;;;;5000349;28;20916;-72
2024/01/06 11:15:49;;;;;;;2.33;0.80;;;5.40;99.90;;;;;;4993156;28;20423;-71
2024/01/06 11:18:31;;;;;;;1.63;0.70;;;5.40;99.90;;;;;;4994943;28;20477;-69
2024/01/06 11:21:21;;;;;;;1.30;0.80;;;5.40;99.90;;;;;;4991474;28;20418;-69
2024/01/06 11:24:07;;;;;;;2.20;0.60;;;5.50;99.90;;;;;;4996830;28;20931;-69
2024/01/06 11:26:32;;;;;;;2.23;1.10;;;5.40;99.90;;;;;;4991689;28;20462;-73
2024/01/06 11:29:00;;;;;;;2.70;1.17;;;6.30;99.90;;;;;;4993944;28;20790;-67
2024/01/06 11:31:30;;;;;;;1.50;1.00;;;5.40;99.90;;;;;;4998298;28;20199;-71
2024/01/06 11:33:56;;;;;;;1.63;0.70;;;5.40;99.90;;;;;;4994438;28;20510;-70
2024/01/06 11:36:22;;;;;;;3.50;0.83;;;5.40;99.90;;;;;;5004244;28;20521;-67
2024/01/06 11:38:50;;;;;;;1.60;0.63;;;5.50;99.90;;;;;;5006239;28;20187;-68
2024/01/06 11:41:50;;;;;;;1.73;0.77;;;5.40;99.90;;;;;;4998776;28;20188;-69
2024/01/06 11:44:20;;;;;;;1.63;0.80;;;5.40;99.90;;;;;;4990907;28;20438;-65
2024/01/06 11:46:47;;;;;;;4.50;0.70;;;5.40;99.90;;;;;;4991200;28;20482;-71
2024/01/06 11:49:20;;;;;;;1.70;0.67;;;5.50;99.90;;;;;;5006210;28;20775;-71
2024/01/06 11:51:46;;;;;;;1.40;0.60;;;5.30;99.90;;;;;;4999959;28;20426;-71
2024/01/06 11:54:12;;;;;;;4.23;0.97;;;6.50;99.90;;;;;;5012495;28;21088;-71
2024/01/06 11:56:38;;;;;;;1.30;0.80;;;5.20;99.90;;;;;;4996628;28;20184;-70
2024/01/06 11:59:03;;;;;;;1.80;1.10;;;6.80;99.90;;;;;;5007436;28;20461;-70
2024/01/06 12:01:37;;;;;;;1.73;0.90;;;5.30;99.90;;;;;;5001904;28;20187;-70
2024/01/06 12:04:04;;;;;;;1.87;0.60;;;6.20;99.90;;;;;;5013061;28;20175;-71
2024/01/06 12:06:30;;;;;;;1.83;0.70;;;5.50;99.90;;;;;;5003445;28;20545;-71
2024/01/06 12:09:15;;;;;;;1.57;0.87;;;5.50;99.90;;;;;;5008831;28;21053;-70
2024/01/06 12:11:41;;;;;;;1.87;0.80;;;5.40;99.90;;;;;;5000958;28;20271;-71
2024/01/06 12:14:07;;;;;;;7.60;0.97;;;5.50;99.90;;;;;;4988725;28;20953;-71
2024/01/06 12:16:33;;;;;;;1.40;0.67;;;6.50;99.90;;;;;;4997254;28;20437;-70
2024/01/06 12:19:00;;;;;;;2.00;0.60;;;5.60;99.90;;;;;;4994783;28;20281;-70
2024/01/06 12:21:30;;;;;;;1.93;0.63;;;6.80;99.90;;;;;;4992901;28;20230;-70
2024/01/06 12:24:13;;;;;;;2.37;0.80;;;6.40;99.90;;;;;;5002992;28;21117;-70
2024/01/06 12:26:41;;;;;;;2.30;0.87;;;5.70;99.90;;;;;;5005196;28;20513;-70
2024/01/06 12:29:07;;;;;;;1.37;0.70;;;7.10;99.90;;;;;;4995155;28;20420;-70
2024/01/06 12:31:33;;;;;;;1.00;0.40;;;7.20;99.90;;;;;;4988843;28;20411;-70
2024/01/06 12:33:59;;;;;;;1.53;0.80;;;5.50;99.90;;;;;;4989063;28;20180;-70
2024/01/06 12:36:24;;;;;;;3.53;0.90;;;5.60;99.90;;;;;;4971182;28;20215;-71
2024/01/06 12:38:50;;;;;;;1.47;0.67;;;6.70;99.90;;;;;;4999226;28;20461;-71
2024/01/06 12:41:16;;;;;;;1.50;0.70;;;6.60;99.90;;;;;;4996679;28;20275;-71
2024/01/06 12:43:41;;;;;;;2.67;0.80;;;6.50;99.90;;;;;;4979385;28;20530;-71
2024/01/06 12:46:07;;;;;;;1.93;1.00;;;6.60;99.90;;;;;;4988033;28;20854;-70
2024/01/06 12:48:32;;;;;;;1.10;0.50;;;6.70;99.90;;;;;;4999366;28;20175;-71
2024/01/06 12:50:58;;;;;;;1.73;0.77;;;6.40;99.90;;;;;;5002734;28;20187;-71
2024/01/06 12:53:23;;;;;;;1.60;0.70;;;5.60;99.90;;;;;;4995460;28;20194;-71